Flight Track Log - Related Links

Times and Time Zones

All times are in EDT time to prevent confusion due to time zone crossing. See the ASQ4932 flight status page for this flight to view local times or setup timezone preferences in your user account.

Time Position Orientation Groundspeed Altitude Reporting Facility
EDT Latitude Longitude Course Direction KTS MPH feet Rate Location/Type
Wed 01:45:25 PM 40.0817 -76.8536 175° South 275 316 8,800  Level New York Center
Wed 01:46:26 PM 39.9975 -76.8681 187° South 290 334 10,900 1,918 Climbing New York Center
Wed 01:47:27 PM 39.9069 -76.8897 190° South 323 372 12,700 1,663 Climbing New York Center
Wed 01:48:07 PM 39.8358 -76.9047 189° South 344 396 13,700 1,723 Climbing Washington Center
Wed 01:49:08 PM 39.7356 -76.9272 190° South 357 411 15,600 1,869 Climbing Washington Center
Wed 01:50:09 PM 39.6331 -76.9469 188° South 370 426 17,500 1,884 Climbing Washington Center
Wed 01:51:09 PM 39.5308 -76.9719 191° South 375 432 19,400 1,678 Climbing Washington Center
Wed 01:52:07 PM 39.4447 -77.0292 207° Southwest 355 409 20,800 1,300 Climbing Washington Center
Wed 01:53:09 PM 39.3644 -77.1136 219° Southwest 355 409 22,000 1,180 Climbing Washington Center
Wed 01:54:09 PM 39.2842 -77.2006 220° Southwest 375 432 23,200 1,231 Climbing Washington Center
Wed 01:55:06 PM 39.2017 -77.2842 218° Southwest 381 438 24,400 1,220 Climbing Washington Center
Wed 01:56:07 PM 39.1169 -77.3733 219° Southwest 381 438 25,600 992 Climbing Washington Center
Wed 01:57:07 PM 39.0344 -77.4594 219° Southwest 381 438 26,400 793 Climbing Washington Center
Wed 01:58:08 PM 38.9539 -77.5428 219° Southwest 381 438 27,200 787 Climbing Washington Center
Wed 01:59:09 PM 38.8753 -77.6233 219° Southwest 391 450 28,000 756 Climbing Washington Center
Wed 02:00:07 PM 38.7883 -77.7117 218° Southwest 398 458 28,700 706 Climbing Washington Center
Wed 02:01:08 PM 38.6992 -77.8022 218° Southwest 404 465 29,400 639 Climbing Washington Center
Wed 02:02:09 PM 38.6222 -77.8983 224° Southwest 404 465 30,000 595 Climbing Washington Center
Wed 02:03:09 PM 38.5619 -78.0000 233° Southwest 381 438 30,600 610 Climbing Washington Center
Wed 02:04:07 PM 38.5014 -78.1042 233° Southwest 376 433 31,200 605 Climbing Washington Center
Wed 02:05:08 PM 38.4408 -78.2053 233° Southwest 369 425 31,800 400 Climbing Washington Center
Wed 02:06:07 PM 38.3803 -78.3092 233° Southwest 364 419 32,000 101 Climbing Washington Center
Wed 02:07:07 PM 38.3175 -78.4128 232° Southwest 369 425 32,000  Level Washington Center
Wed 02:08:07 PM 38.2544 -78.5189 233° Southwest 374 430 32,000  Level Washington Center
Wed 02:09:08 PM 38.1953 -78.6275 235° Southwest 379 436 32,000  Level Washington Center
Wed 02:10:08 PM 38.1300 -78.7356 232° Southwest 384 442 32,000  Level Washington Center
Wed 02:11:09 PM 38.0558 -78.8592 233° Southwest 396 456 32,000  Level Washington Center
Wed 02:12:07 PM 37.9903 -78.9669 232° Southwest 401 461 32,000  Level Washington Center
Wed 02:13:08 PM 37.9222 -79.0797 233° Southwest 401 461 32,000  Level Washington Center
Wed 02:14:09 PM 37.8506 -79.1842 229° Southwest 406 467 32,000  Level Washington Center
Wed 02:15:09 PM 37.7808 -79.2808 228° Southwest 411 473 32,000  Level Washington Center
Wed 02:16:09 PM 37.6939 -79.3919 225° Southwest 411 473 32,000  Level Washington Center
Wed 02:17:07 PM 37.6194 -79.4983 229° Southwest 411 473 32,000  Level Washington Center
Wed 02:18:07 PM 37.5431 -79.6019 227° Southwest 411 473 32,000  Level Washington Center
Wed 02:19:08 PM 37.4686 -79.7081 229° Southwest 411 473 32,000  Level Washington Center
Wed 02:20:08 PM 37.3942 -79.8111 228° Southwest 418 481 32,000  Level Washington Center
Wed 02:21:09 PM 37.3172 -79.9139 227° Southwest 423 487 32,000  Level Washington Center
Wed 02:23:05 PM 37.1633 -80.1192 227° Southwest 404 465 32,000  Level Atlanta Center
Wed 02:24:05 PM 37.0772 -80.2328 226° Southwest 409 471 32,000  Level Atlanta Center
Wed 02:25:05 PM 37.0014 -80.3378 228° Southwest 409 471 32,000  Level Atlanta Center
Wed 02:26:05 PM 36.9231 -80.4403 226° Southwest 409 471 32,000  Level Atlanta Center
Wed 02:27:05 PM 36.8447 -80.5450 227° Southwest 409 471 32,000  Level Atlanta Center
Wed 02:28:05 PM 36.7764 -80.6361 227° Southwest 409 471 32,000  Level Atlanta Center
Wed 02:29:05 PM 36.6939 -80.7456 227° Southwest 402 463 32,000  Level Atlanta Center
Wed 02:30:05 PM 36.6156 -80.8522 228° Southwest 408 470 32,000  Level Atlanta Center
Wed 02:31:05 PM 36.5367 -80.9536 226° Southwest 408 470 32,000  Level Atlanta Center
Wed 02:32:05 PM 36.4581 -81.0600 227° Southwest 408 470 32,000  Level Atlanta Center
Wed 02:33:05 PM 36.3772 -81.1661 227° Southwest 408 470 32,000  Level Atlanta Center
Wed 02:34:05 PM 36.2983 -81.2719 227° Southwest 408 470 32,000  Level Atlanta Center
Wed 02:35:05 PM 36.2172 -81.3778 226° Southwest 413 475 32,000  Level Atlanta Center
Wed 02:36:05 PM 36.1381 -81.4831 227° Southwest 413 475 32,000  Level Atlanta Center
Wed 02:37:05 PM 36.0547 -81.5886 226° Southwest 413 475 32,000  Level Atlanta Center
Wed 02:38:05 PM 35.9753 -81.6936 227° Southwest 413 475 32,000  Level Atlanta Center
Wed 02:39:05 PM 35.8939 -81.7958 226° Southwest 419 482 32,000  Level Atlanta Center
Wed 02:40:05 PM 35.8122 -81.9006 226° Southwest 419 482 32,000  Level Atlanta Center
Wed 02:41:05 PM 35.7306 -82.0050 226° Southwest 419 482 32,000  Level Atlanta Center
Wed 02:42:05 PM 35.6489 -82.1092 226° Southwest 424 488 32,000  Level Atlanta Center
Wed 02:43:05 PM 35.5606 -82.2058 222° Southwest 429 494 32,000 -350 Level Atlanta Center
Wed 02:44:05 PM 35.4744 -82.3047 223° Southwest 429 494 31,300 -850 Descending Atlanta Center
Wed 02:45:05 PM 35.3842 -82.4083 223° Southwest 429 494 30,300 -1,000 Descending Atlanta Center
Wed 02:46:05 PM 35.2956 -82.5094 223° Southwest 434 499 29,300 -950 Descending Atlanta Center
Wed 02:47:05 PM 35.2175 -82.5972 223° Southwest 434 499 28,400 -950 Descending Atlanta Center
Wed 02:48:05 PM 35.1289 -82.6953 222° Southwest 439 505 27,400 -1,000 Descending Atlanta Center
Wed 02:49:05 PM 35.0422 -82.7881 221° Southwest 434 499 26,400 -1,000 Descending Atlanta Center
Wed 02:50:05 PM 34.9575 -82.8856 223° Southwest 434 499 25,400 -1,050 Descending Atlanta Center
Wed 02:51:05 PM 34.8644 -82.9856 221° Southwest 423 487 24,300 -700 Descending Atlanta Center
Wed 02:52:05 PM 34.7778 -83.0778 221° Southwest 417 480 24,000 -150 Descending Atlanta Center
Wed 02:53:05 PM 34.7011 -83.1697 225° Southwest 402 463 24,000  Level Atlanta Center
Wed 02:54:05 PM 34.6244 -83.2536 222° Southwest 389 448 24,000 -150 Level Atlanta Center
Wed 02:55:05 PM 34.5458 -83.3403 222° Southwest 389 448 23,700 -1,150 Descending Atlanta Center
Wed 02:56:05 PM 34.4586 -83.4342 222° Southwest 403 464 21,700 -2,133 Descending Atlanta Center
Wed 02:58:05 PM 34.2861 -83.6239 222° Southwest 423 487 17,300 -2,067 Descending Atlanta Center
Wed 02:59:05 PM 34.2153 -83.7022 222° Southwest 401 461 15,500 -2,000 Descending Atlanta Center
Wed 03:00:05 PM 34.1364 -83.7878 222° Southwest 391 450 13,300 -1,750 Descending Atlanta Center
Wed 03:01:05 PM 34.0675 -83.8658 223° Southwest 369 425 12,000 -1,100 Descending Atlanta Center
Wed 03:02:05 PM 34.0072 -83.9286 221° Southwest 317 365 11,100 -1,100 Descending Atlanta Center
Wed 03:03:05 PM 33.9486 -83.9911 222° Southwest 288 331 9,800 -1,250 Descending Atlanta Center
Wed 03:04:05 PM 33.8861 -84.0539 220° Southwest 281 323 8,600 -1,400 Descending Atlanta Center
Wed 03:05:05 PM 33.8214 -84.0764 196° South 244 281 7,000 -1,500 Descending Atlanta Center
Wed 03:06:05 PM 33.7503 -84.0864 187° South 249 287 5,600 -1,279 Descending Atlanta Center
Wed 03:07:21 PM 33.6833 -84.1333 210° Southwest 236 272 4,100 -681 Descending Atlanta TRACON
Wed 03:08:26 PM 33.6500 -84.2000 239° Southwest 226 260 4,000 -333 Descending Atlanta TRACON
Wed 03:09:27 PM 33.6500 -84.2667 270° West 182 209 3,400 -783 Descending Atlanta TRACON
Wed 03:10:21 PM 33.6500 -84.3167 270° West 179 206 2,500 -895 Descending Atlanta TRACON
Wed 03:11:21 PM 33.6500 -84.3667 270° West 138 159 1,700 -800 Descending Atlanta TRACON
Wed 03:13:00 PM 33.6367 -84.4279 270° West  Level Estimated
Wed 03:20:00 PM 33.6367 -84.4279 103° East  Level Estimated

Login

Don't have an account? Register now (free) for customized features, flight alerts, and more!